Wetterdaten: Mai 2010
Datum Temp. A. Feuchte A. Luftdruck Regen Wind Richtung Taupunkt Windchill Windben
01.05.2010 13,1 C 87 % 1010,7 hPa 3,9 l/m 0,6 km/h W-SW 10,9 C 13,1 C 0,3 km/h
02.05.2010 11,5 C 85 % 1008,7 hPa 0,7 l/m 4,7 km/h S-SO 8,8 C 10,4 C 2,6 km/h
03.05.2010 10,9 C 82 % 1010,6 hPa 2,5 l/m 3,6 km/h NO 7,6 C 10,0 C 2,0 km/h
04.05.2010 11,0 C 79 % 1010,4 hPa 1,1 l/m 2,4 km/h N-NO 7,5 C 11,0 C 1,3 km/h
05.05.2010 8,4 C 81 % 1005,0 hPa 0,0 l/m 3,9 km/h N 5,2 C 8,4 C 2,2 km/h
06.05.2010 6,8 C 92 % 1002,5 hPa 9,6 l/m 11,8 km/h W 5,6 C 2,4 C 6,5 km/h
07.05.2010 8,9 C 85 % 1006,2 hPa 1,8 l/m 1,8 km/h SW 6,4 C 8,7 C 1,0 km/h
08.05.2010 12,5 C 72 % 1007,4 hPa 0,0 l/m 3,7 km/h O-NO 6,7 C 12,1 C 2,0 km/h
09.05.2010 12,3 C 83 % 1006,4 hPa 7,1 l/m 2,3 km/h S-SO 9,0 C 12,0 C 1,3 km/h
10.05.2010 12,3 C 86 % 1004,9 hPa 3,6 l/m 0,0 km/h S 9,8 C 12,3 C 0,0 km/h
11.05.2010 12,1 C 85 % 1003,0 hPa 0,4 l/m 6,3 km/h W-SW 9,5 C 10,6 C 3,5 km/h
12.05.2010 14,2 C 71 % 1006,8 hPa 0,4 l/m 1,9 km/h N-NO 8,5 C 14,2 C 1,1 km/h
13.05.2010 7,4 C 90 % 1009,8 hPa 24,2 l/m 0,0 km/h N-NO 5,9 C 7,4 C 0,0 km/h
14.05.2010 9,7 C 81 % 1008,6 hPa 0,0 l/m 0,0 km/h N-NO 6,5 C 9,7 C 0,0 km/h
15.05.2010 8,9 C 83 % 1010,3 hPa 0,0 l/m 1,1 km/h N-NO 6,2 C 8,9 C 0,6 km/h
16.05.2010 10,5 C 78 % 1016,9 hPa 0,0 l/m 4,7 km/h SO 6,7 C 9,3 C 2,6 km/h
17.05.2010 12,3 C 73 % 1022,0 hPa 1,1 l/m 0,0 km/h SO 7,4 C 12,3 C 0,0 km/h
18.05.2010 10,8 C 70 % 1024,8 hPa 0,0 l/m 0,6 km/h O-NO 5,0 C 10,8 C 0,3 km/h
19.05.2010 11,4 C 71 % 1025,2 hPa 0,7 l/m 0,0 km/h S-SO 5,6 C 11,4 C 0,0 km/h
20.05.2010 10,6 C 87 % 1026,9 hPa 3,6 l/m 0,0 km/h NO 8,5 C 10,6 C 0,0 km/h
21.05.2010 14,6 C 81 % 1026,2 hPa 0,0 l/m 0,6 km/h N-NO 11,1 C 14,6 C 0,3 km/h
31.05.2010 12,9 C 73 % 1015,3 hPa 39,1 l/m 0,2 km/h NW 7,8 C 12,9 C 0,1 km/h
Min-Datum 17.05.10 08.05.10 06.05.10 15 Tage 01.05.10 - 19.05.10 06.05.10 01.05.10
Min-Zeit 03:53 16:53 05:53 - 00:53 - 15:53 20:53 00:53
Minimum 4,2 C 32 % 1000,4 hPa - 0,0 km/h - 2,4 C -3,2 C 0,0 km/h
Max-Datum 08.05.10 08.05.10 20.05.10 31.05.10 02.05.10 - 10.05.10 08.05.10 02.05.10
Max-Zeit 16:53 07:53 22:53 07:53 15:53 - 15:53 16:53 15:53
Maximum 26,9 C 95 % 1027,6 hPa 39,1 l/m 32,4 km/h
S-SO
- 14,6 C 26,9 C 18,0 km/h
S-SO
Durchschnitt 11,0 C 80 % 1012,2 hPa #99,7 l/m 2,3 km/h N-NO 7,6 C 10,6 C 1,3 km/h

Durchschnitt Minimum Temp.7,3 C
Durchschnitt Maximum Temp.17,6 C